Main page
METAR-TAF:

METAR-TAF

Airports :

Cognac – Châteaubernard Air Base

Cognac, France

latitude: 45-40N, longitude: 000-19W, elevation: 30 m

Current weather observation

The report was made 29 minutes ago, at 12:30 UTC
Wind 8 kt from the North, varying between Northwest and Northeast
Temperature 28°C
Humidity 48%
Pressure 1021 hPa
Visibility 10 km or more
Overcast at a height of 4800 ft

METAR: LFBG 201230Z AUTO 36008KT 310V040 9999 OVC048 28/16 Q1021 NOSIG

Time: 14:59 (12:59 UTC)

Forecast

The report was made 4 hours and 59 minutes ago, at 08:00 UTC
Forecast valid from 20 at 09 UTC to 21 at 09 UTC
Wind 5 kt from the North
Visibility 10 km or more
no clouds below 1500 m and no cumulonimbus

TAF: LFBG 200800Z 2009/2109 01005KT CAVOK

Weather observations and forecasts of more than 4000 airports (METAR and TAF reports).

The available stations are represented by yellow and red dots on the map.

Hover mouse over dot to see the name of the station.

Then click to see weather observations and forecasts.

To change the map : click on the green buttons with a black cross to zoom in, on the green button with a dash to zoom out, or on the green arrows for adjacent maps.


METAR-TAF: